BANCO CHINCHORRO MX current weather conditions

sailwx.info

Wind from 144 at 5 knots gusting 11

Air temperature 34.5° C
Dewpoint 25.8° C

Last reported at 2020-Sep-26 16:45 UTC.
Time now 2020-Sep-26 18:09 UTC

Location: N 18°45' W 087°18'.
View on Google Maps.

See reports from other nearby stations

  
Tides and Currents Weather Stations Pressure Air Temp Water Temp Dewpoint Dewpoint Depression Visibility Wind Speed Wind Dir Waves Ship Positions
date/time (UTC)wind fromknots sea level pressurealtimeterstation pressurevisibilityair tempwater tempwave heightnotes
2020-Sep-26 16:45 144 5 gusting 11 34.5
2020-Sep-26 15:45 136 5 gusting 11 33.7
2020-Sep-26 14:45 131 4 gusting 9 32.9
2020-Sep-26 13:45 134 5 gusting 9 31.7
2020-Sep-26 12:45 133 4 gusting 10 29.8
2020-Sep-26 11:45 136 4 gusting 9 28.6
2020-Sep-26 10:45 151 4 gusting 10 28.2
2020-Sep-26 09:45 142 5 gusting 12 27.8
2020-Sep-26 08:45 136 5 gusting 10 28.0
2020-Sep-26 07:45 098 7 gusting 13 27.1
2020-Sep-26 06:45 124 6 gusting 11 29.7
2020-Sep-26 05:45 126 5 gusting 12 29.8
2020-Sep-26 04:45 119 5 gusting 10 29.7
2020-Sep-26 03:45 118 6 gusting 11 29.8
2020-Sep-26 02:45 106 7 gusting 10 29.4
2020-Sep-26 01:45 111 6 gusting 13 29.1
2020-Sep-26 00:45 121 5 gusting 15 28.8
2020-Sep-25 23:45 069 2 gusting 5 27.0
2020-Sep-25 22:45 121 4 gusting 11 29.9
2020-Sep-25 21:45 099 5 gusting 8 30.4
2020-Sep-25 20:45 114 5 gusting 10 29.6
2020-Sep-25 19:45 119 5 gusting 14 32.5
2020-Sep-25 18:45 116 4 gusting 9 34.6
2020-Sep-25 17:45 128 4 gusting 8 34.7
2020-Sep-25 16:45 147 3 gusting 7 35.2
2020-Sep-25 15:45 160 3 gusting 6 34.7
2020-Sep-25 14:45 252 2 gusting 6 33.6
2020-Sep-25 13:45 163 2 gusting 6 32.8
2020-Sep-25 12:45 163 3 gusting 8 30.2
2020-Sep-25 11:45 144 3 gusting 7 28.8
2020-Sep-25 10:45 084 2 gusting 5 28.9
2020-Sep-25 09:45 148 4 gusting 9 29.1
2020-Sep-25 08:45 137 5 gusting 12 29.1
2020-Sep-25 07:45 142 5 gusting 10 29.1
2020-Sep-25 06:45 127 4 gusting 8 29.1
2020-Sep-25 05:45 129 3 gusting 8 29.2
2020-Sep-25 04:45 121 4 gusting 9 29.3
2020-Sep-25 03:45 123 4 gusting 10 29.4
2020-Sep-25 02:45 112 4 gusting 8 29.5
2020-Sep-25 01:45 120 2 gusting 6 29.2
2020-Sep-25 00:45 125 2 gusting 5 29.3
2020-Sep-24 23:45 129 2 gusting 5 29.8
2020-Sep-24 22:45 124 2 gusting 5 32.1
2020-Sep-24 21:45 143 2 gusting 6 33.1
2020-Sep-24 20:45 149 2 gusting 4 34.0
2020-Sep-24 19:45 271 1 gusting 3 34.8
2020-Sep-24 18:45 199 1 gusting 5 34.4